createdAt,value
2023-04-10T00:00:59.979Z,21.92
2023-04-10T00:03:28.121Z,21.13
2023-04-10T00:05:57.305Z,21.15
2023-04-10T00:08:25.824Z,20.73
2023-04-10T00:10:54.463Z,18.17
2023-04-10T00:13:22.398Z,17.73
2023-04-10T00:15:51.754Z,19.60
2023-04-10T00:18:19.626Z,16.20
2023-04-10T00:20:47.509Z,19.88
2023-04-10T00:23:15.458Z,19.23
2023-04-10T00:25:43.279Z,16.73
2023-04-10T00:28:11.145Z,17.30
2023-04-10T00:30:39.002Z,16.65
2023-04-10T00:33:08.309Z,17.08
2023-04-10T00:35:36.196Z,17.55
2023-04-10T00:38:04.045Z,16.83
2023-04-10T00:40:32.079Z,17.00
2023-04-10T00:43:00.033Z,18.20
2023-04-10T00:45:28.159Z,17.20
2023-04-10T00:47:56.569Z,18.17
2023-04-10T00:50:25.953Z,18.17
2023-04-10T00:52:54.405Z,15.68
2023-04-10T00:55:24.417Z,15.93
2023-04-10T00:57:53.233Z,16.42
2023-04-10T01:00:22.113Z,14.68
2023-04-10T01:02:50.342Z,14.82
2023-04-10T01:05:18.631Z,13.95
2023-04-10T01:08:01.401Z,17.40
2023-04-10T01:10:39.422Z,15.82
2023-04-10T01:13:16.853Z,15.25
2023-04-10T01:15:50.471Z,15.50
2023-04-10T01:18:27.591Z,14.88
2023-04-10T01:20:56.213Z,15.07
2023-04-10T01:23:55.224Z,14.88
2023-04-10T01:26:40.706Z,13.38
2023-04-10T01:29:15.969Z,16.75
2023-04-10T01:31:47.713Z,15.05
2023-04-10T01:34:20.083Z,16.35
2023-04-10T01:36:52.535Z,14.23
2023-04-10T01:39:22.107Z,15.95
2023-04-10T01:41:53.145Z,15.35
2023-04-10T01:44:29.980Z,14.80
2023-04-10T01:46:58.846Z,17.92
2023-04-10T01:49:29.253Z,17.35
2023-04-10T01:52:04.313Z,15.52
2023-04-10T01:54:33.759Z,17.48
2023-04-10T01:57:03.980Z,16.38
2023-04-10T01:59:40.675Z,16.95
2023-04-10T02:02:11.739Z,18.30
2023-04-10T02:04:40.123Z,16.30
2023-04-10T02:07:16.553Z,16.70
2023-04-10T02:09:51.090Z,16.80
2023-04-10T02:12:24.574Z,15.02
2023-04-10T02:14:58.468Z,13.68
2023-04-10T02:17:29.470Z,14.95
2023-04-10T02:19:59.191Z,17.02
2023-04-10T02:22:27.630Z,15.80
2023-04-10T02:24:55.685Z,14.52
2023-04-10T02:27:30.995Z,14.32
2023-04-10T02:30:02.450Z,14.50
2023-04-10T02:32:32.931Z,12.93
2023-04-10T02:35:02.106Z,13.77
2023-04-10T02:37:31.108Z,14.82
2023-04-10T02:40:01.442Z,14.02
2023-04-10T02:42:36.235Z,11.85
2023-04-10T02:45:07.349Z,12.82
2023-04-10T02:47:40.093Z,14.65
2023-04-10T02:50:08.917Z,14.23
2023-04-10T02:52:39.474Z,14.23
2023-04-10T02:55:08.313Z,13.88
2023-04-10T02:57:38.482Z,12.07
2023-04-10T03:00:09.696Z,12.13
2023-04-10T03:03:06.810Z,15.15
2023-04-10T03:05:43.235Z,14.02
2023-04-10T03:08:11.227Z,14.88
2023-04-10T03:10:39.077Z,13.38
2023-04-10T03:13:06.898Z,13.25
2023-04-10T03:15:36.161Z,12.00
2023-04-10T03:18:04.250Z,13.52
2023-04-10T03:20:32.298Z,13.20
2023-04-10T03:23:00.609Z,14.77
2023-04-10T03:25:28.829Z,13.27
2023-04-10T03:27:57.404Z,15.60
2023-04-10T03:30:25.472Z,17.27
2023-04-10T03:32:55.051Z,13.55
2023-04-10T03:35:23.610Z,14.00
2023-04-10T03:37:51.584Z,14.32
2023-04-10T03:40:19.519Z,15.98
2023-04-10T03:42:47.576Z,14.73
2023-04-10T03:45:15.928Z,13.80
2023-04-10T03:47:43.988Z,15.25
2023-04-10T03:50:16.486Z,15.10
2023-04-10T03:52:53.043Z,13.43
2023-04-10T03:55:23.259Z,15.32
2023-04-10T03:57:52.462Z,14.52
2023-04-10T04:00:25.518Z,13.65
2023-04-10T04:03:04.816Z,14.10
2023-04-10T04:06:07.425Z,13.15
2023-04-10T04:08:55.248Z,16.23
2023-04-10T04:11:42.687Z,13.60
2023-04-10T04:14:28.588Z,13.98
2023-04-10T04:17:16.754Z,15.15
2023-04-10T04:20:09.043Z,17.52
2023-04-10T04:22:51.036Z,19.50
2023-04-10T04:25:38.363Z,18.55
2023-04-10T04:28:41.770Z,24.23
2023-04-10T04:31:32.414Z,16.52
2023-04-10T04:34:19.112Z,20.20
2023-04-10T04:37:07.386Z,16.48
2023-04-10T04:39:47.489Z,17.10
2023-04-10T04:42:24.486Z,18.88
2023-04-10T04:45:09.524Z,17.05
2023-04-10T04:48:07.495Z,17.70
2023-04-10T04:50:53.644Z,19.30
2023-04-10T04:53:38.758Z,17.23
2023-04-10T04:56:23.886Z,17.30
2023-04-10T04:59:08.625Z,15.07
2023-04-10T05:01:56.979Z,15.90
2023-04-10T05:05:03.305Z,15.52
2023-04-10T05:07:44.984Z,14.25
2023-04-10T05:10:39.061Z,13.52
2023-04-10T05:13:26.821Z,12.70
2023-04-10T05:16:11.597Z,15.25
2023-04-10T05:18:57.132Z,14.07
2023-04-10T05:21:48.197Z,11.35
2023-04-10T05:24:25.299Z,12.27
2023-04-10T05:27:13.495Z,11.02
2023-04-10T05:30:02.345Z,10.02
2023-04-10T05:32:48.930Z,11.38
2023-04-10T05:35:24.695Z,11.55
2023-04-10T05:37:58.912Z,12.05
2023-04-10T05:40:34.150Z,11.35
2023-04-10T05:43:22.864Z,12.00
2023-04-10T05:46:14.991Z,10.60
2023-04-10T05:48:55.205Z,9.27
2023-04-10T05:51:34.762Z,10.98
2023-04-10T05:54:25.835Z,9.50
2023-04-10T05:57:19.607Z,9.98
2023-04-10T06:00:08.069Z,11.40
2023-04-10T06:02:43.445Z,11.40
2023-04-10T06:05:21.142Z,10.45
2023-04-10T06:07:49.262Z,10.75
2023-04-10T06:10:17.088Z,10.00
2023-04-10T06:12:45.876Z,9.98
2023-04-10T06:15:14.896Z,8.32
2023-04-10T06:17:44.938Z,9.70
2023-04-10T06:20:14.128Z,8.95
2023-04-10T06:22:41.959Z,9.32
2023-04-10T06:25:10.812Z,8.52
2023-04-10T06:27:38.896Z,8.48
2023-04-10T06:30:11.206Z,8.88
2023-04-10T06:32:39.176Z,8.73
2023-04-10T06:35:09.295Z,8.45
2023-04-10T06:37:37.238Z,9.50
2023-04-10T06:40:08.196Z,8.98
2023-04-10T06:42:36.880Z,9.45
2023-04-10T06:45:12.681Z,8.95
2023-04-10T06:47:40.592Z,9.40
2023-04-10T06:50:10.964Z,8.70
2023-04-10T06:52:38.827Z,9.85
2023-04-10T06:55:07.624Z,9.60
2023-04-10T06:57:35.516Z,10.70
2023-04-10T07:00:03.642Z,8.85
2023-04-10T07:02:31.618Z,9.70
2023-04-10T07:04:59.522Z,8.35
2023-04-10T07:07:29.259Z,8.88
2023-04-10T07:09:58.545Z,9.02
2023-04-10T07:12:26.800Z,8.60
2023-04-10T07:14:54.670Z,8.80
2023-04-10T07:17:23.029Z,7.57
2023-04-10T07:19:50.885Z,9.32
2023-04-10T07:22:18.775Z,8.63
2023-04-10T07:24:48.246Z,7.72
2023-04-10T07:27:17.098Z,7.43
2023-04-10T07:29:44.930Z,7.07
2023-04-10T07:32:12.843Z,6.53
2023-04-10T07:34:42.054Z,6.32
2023-04-10T07:37:09.873Z,6.78
2023-04-10T07:39:37.815Z,7.25
2023-04-10T07:42:07.165Z,6.15
2023-04-10T07:44:35.009Z,6.40
2023-04-10T07:47:02.888Z,5.57
2023-04-10T07:49:30.887Z,5.85
2023-04-10T07:51:58.738Z,5.70
2023-04-10T07:54:26.738Z,6.20
2023-04-10T07:56:54.693Z,5.85
2023-04-10T07:59:23.917Z,6.00
2023-04-10T08:01:51.858Z,6.03
2023-04-10T08:04:19.959Z,5.78
2023-04-10T08:06:49.398Z,6.85
2023-04-10T08:09:17.403Z,6.05
2023-04-10T08:11:45.350Z,6.22
2023-04-10T08:14:13.494Z,5.95
2023-04-10T08:16:47.825Z,6.95
2023-04-10T08:19:15.663Z,6.82
2023-04-10T08:21:43.533Z,6.80
2023-04-10T08:24:11.626Z,7.00
2023-04-10T08:26:39.491Z,6.70
2023-04-10T08:29:07.682Z,6.65
2023-04-10T08:31:35.771Z,6.63
2023-04-10T08:34:05.040Z,7.20
2023-04-10T08:36:33.390Z,6.32
2023-04-10T08:39:01.317Z,7.07
2023-04-10T08:41:29.358Z,5.93
2023-04-10T08:43:58.551Z,6.40
2023-04-10T08:46:27.364Z,5.10
2023-04-10T08:49:02.777Z,6.20
2023-04-10T08:51:38.195Z,6.75
2023-04-10T08:54:08.872Z,6.95
2023-04-10T08:56:40.383Z,7.03
2023-04-10T08:59:09.345Z,6.38
2023-04-10T09:01:37.410Z,6.88
2023-04-10T09:04:06.069Z,6.20
2023-04-10T09:06:35.424Z,5.40
2023-04-10T09:09:03.375Z,5.45
2023-04-10T09:12:00.736Z,6.07
2023-04-10T09:14:30.563Z,5.07
2023-04-10T09:17:13.302Z,5.30
2023-04-10T09:19:41.406Z,5.10
2023-04-10T09:22:11.171Z,5.90
2023-04-10T09:24:40.304Z,5.47
2023-04-10T09:27:08.486Z,5.72
2023-04-10T09:29:44.971Z,5.55
2023-04-10T09:32:13.154Z,4.70
2023-04-10T09:34:54.911Z,4.82
2023-04-10T09:37:31.810Z,4.18
2023-04-10T09:39:59.687Z,4.40
2023-04-10T09:42:33.561Z,4.68
2023-04-10T09:45:02.371Z,4.00
2023-04-10T09:47:30.848Z,4.90
2023-04-10T09:50:01.270Z,4.38
2023-04-10T09:52:32.317Z,4.70
2023-04-10T09:55:01.578Z,4.55
2023-04-10T09:57:31.716Z,4.20
2023-04-10T10:00:01.293Z,4.53
2023-04-10T10:02:39.795Z,5.22
2023-04-10T10:05:09.093Z,4.53
2023-04-10T10:07:39.780Z,4.72
2023-04-10T10:10:09.107Z,4.18
2023-04-10T10:12:41.665Z,4.88
2023-04-10T10:15:15.745Z,4.18
2023-04-10T10:17:52.024Z,4.82
2023-04-10T10:20:23.254Z,4.05
2023-04-10T10:22:53.603Z,4.50
2023-04-10T10:25:21.755Z,4.45
2023-04-10T10:27:53.389Z,5.70
2023-04-10T10:30:30.195Z,4.50
2023-04-10T10:32:59.933Z,3.80
2023-04-10T10:35:29.958Z,4.22
2023-04-10T10:38:00.649Z,4.10
2023-04-10T10:40:32.364Z,3.83
2023-04-10T10:43:11.767Z,4.68
2023-04-10T10:45:45.200Z,4.32
2023-04-10T10:48:13.238Z,4.38
2023-04-10T10:50:56.244Z,4.60
2023-04-10T10:53:50.450Z,4.10
2023-04-10T10:56:37.488Z,4.70
2023-04-10T10:59:05.427Z,4.05
2023-04-10T11:01:33.530Z,3.83
2023-04-10T11:04:02.236Z,4.22
2023-04-10T11:06:49.877Z,4.10
2023-04-10T11:09:48.393Z,3.30
2023-04-10T11:12:17.106Z,4.40
2023-04-10T11:14:46.063Z,5.68
2023-04-10T11:17:14.170Z,3.85
2023-04-10T11:20:01.524Z,3.95
2023-04-10T11:22:29.459Z,3.83
2023-04-10T11:25:01.785Z,3.88
2023-04-10T11:27:44.672Z,3.60
2023-04-10T11:30:36.284Z,4.07
2023-04-10T11:33:06.509Z,3.70
2023-04-10T11:35:35.749Z,4.22
2023-04-10T11:38:14.500Z,3.92
2023-04-10T11:41:02.926Z,4.20
2023-04-10T11:43:31.600Z,3.80
2023-04-10T11:46:08.556Z,3.90
2023-04-10T11:48:37.584Z,4.45
2023-04-10T11:51:10.013Z,4.18
2023-04-10T11:53:38.446Z,3.10
2023-04-10T11:56:16.624Z,3.22
2023-04-10T11:58:44.911Z,4.13
2023-04-10T12:01:14.575Z,3.67
2023-04-10T12:03:43.800Z,3.83
2023-04-10T12:06:13.367Z,4.63
2023-04-10T12:08:45.219Z,5.10
2023-04-10T12:11:16.020Z,6.40
2023-04-10T12:13:43.950Z,4.80
2023-04-10T12:16:12.355Z,4.22
2023-04-10T12:18:40.609Z,4.78
2023-04-10T12:21:09.063Z,4.07
2023-04-10T12:23:39.472Z,3.75
2023-04-10T12:26:10.671Z,4.13
2023-04-10T12:28:41.844Z,4.25
2023-04-10T12:31:10.287Z,4.65
2023-04-10T12:33:38.330Z,3.53
2023-04-10T12:36:06.723Z,3.60
2023-04-10T12:38:39.725Z,4.20
2023-04-10T12:41:08.824Z,3.28
2023-04-10T12:43:40.179Z,4.32
2023-04-10T12:46:09.739Z,3.55
2023-04-10T12:48:37.892Z,3.55
2023-04-10T12:51:06.182Z,3.88
2023-04-10T12:53:44.211Z,3.47
2023-04-10T12:56:13.323Z,5.43
2023-04-10T12:58:43.012Z,4.32
2023-04-10T13:01:11.177Z,4.47
2023-04-10T13:03:39.510Z,4.63
2023-04-10T13:06:08.563Z,4.25
2023-04-10T13:08:36.669Z,4.45
2023-04-10T13:11:04.565Z,4.57
2023-04-10T13:13:33.025Z,3.70
2023-04-10T13:16:02.359Z,3.40
2023-04-10T13:18:30.332Z,3.83
2023-04-10T13:20:58.192Z,3.63
2023-04-10T13:23:26.050Z,2.90
2023-04-10T13:25:54.358Z,3.63
2023-04-10T13:28:22.202Z,3.75
2023-04-10T13:30:50.110Z,3.70
2023-04-10T13:33:19.300Z,3.78
2023-04-10T13:35:47.153Z,4.05
2023-04-10T13:38:15.852Z,4.43
2023-04-10T13:40:43.745Z,3.80
2023-04-10T13:43:11.622Z,3.63
2023-04-10T13:45:39.434Z,3.67
2023-04-10T13:48:08.079Z,4.90
2023-04-10T13:50:37.331Z,3.60
2023-04-10T13:53:07.358Z,3.85
2023-04-10T13:55:36.322Z,4.30
2023-04-10T13:58:04.233Z,4.45
2023-04-10T14:00:32.129Z,3.33
2023-04-10T14:03:00.103Z,3.42
2023-04-10T14:05:28.046Z,3.17
2023-04-10T14:07:57.671Z,3.95
2023-04-10T14:10:25.694Z,3.75
2023-04-10T14:12:53.565Z,3.70
2023-04-10T14:15:21.401Z,3.38
2023-04-10T14:17:49.300Z,4.20
2023-04-10T14:20:17.124Z,4.40
2023-04-10T14:22:44.991Z,3.72
2023-04-10T14:25:15.997Z,3.47
2023-04-10T14:27:44.603Z,3.67
2023-04-10T14:30:13.779Z,3.85
2023-04-10T14:32:41.758Z,4.57
2023-04-10T14:35:10.645Z,3.70
2023-04-10T14:37:38.688Z,4.78
2023-04-10T14:40:07.842Z,3.25
2023-04-10T14:42:37.071Z,3.83
2023-04-10T14:45:06.143Z,3.25
2023-04-10T14:47:34.043Z,4.03
2023-04-10T14:50:01.982Z,3.63
2023-04-10T14:52:29.860Z,3.80
2023-04-10T14:54:57.673Z,3.42
2023-04-10T14:57:25.680Z,3.45
2023-04-10T14:59:54.847Z,3.85
2023-04-10T15:02:22.786Z,3.47
2023-04-10T15:04:51.750Z,2.88
2023-04-10T15:07:19.692Z,4.10
2023-04-10T15:09:47.559Z,3.70
2023-04-10T15:12:15.446Z,3.22
2023-04-10T15:14:43.315Z,3.50
2023-04-10T15:17:12.562Z,3.38
2023-04-10T15:19:40.456Z,3.17
2023-04-10T15:22:08.297Z,2.92
2023-04-10T15:24:47.032Z,3.28
2023-04-10T15:27:20.838Z,2.78
2023-04-10T15:29:49.106Z,3.97
2023-04-10T15:32:18.299Z,3.00
2023-04-10T15:34:46.409Z,3.13
2023-04-10T15:37:14.259Z,3.08
2023-04-10T15:39:42.101Z,3.15
2023-04-10T15:42:10.262Z,3.28
2023-04-10T15:44:38.088Z,2.67
2023-04-10T15:47:06.014Z,2.75
2023-04-10T15:49:38.251Z,3.97
2023-04-10T15:52:06.956Z,9.43
2023-04-10T15:54:35.413Z,4.13
2023-04-10T15:57:03.661Z,3.53
2023-04-10T15:59:31.812Z,3.70
2023-04-10T16:02:00.197Z,3.47
2023-04-10T16:04:28.964Z,4.38
2023-04-10T16:06:58.335Z,3.45
2023-04-10T16:09:26.784Z,3.58
2023-04-10T16:11:56.093Z,4.82
2023-04-10T16:14:24.118Z,3.28
2023-04-10T16:16:52.215Z,3.45
2023-04-10T16:19:20.196Z,3.35
2023-04-10T16:21:48.098Z,3.70
2023-04-10T16:24:17.441Z,3.53
2023-04-10T16:26:45.302Z,3.80
2023-04-10T16:29:13.143Z,3.58
2023-04-10T16:31:41.107Z,3.70
2023-04-10T16:34:09.044Z,3.90
2023-04-10T16:36:36.936Z,4.43
2023-04-10T16:39:05.693Z,4.53
2023-04-10T16:41:34.901Z,4.15
2023-04-10T16:44:03.127Z,4.28
2023-04-10T16:46:32.705Z,4.07
2023-04-10T16:49:01.502Z,3.20
2023-04-10T16:51:29.386Z,3.63
2023-04-10T16:53:57.340Z,4.00
2023-04-10T16:56:25.242Z,3.05
2023-04-10T16:58:54.667Z,4.28
2023-04-10T17:01:26.026Z,3.85
2023-04-10T17:03:54.907Z,3.75
2023-04-10T17:06:23.062Z,4.25
2023-04-10T17:08:50.952Z,4.03
2023-04-10T17:11:18.803Z,4.18
2023-04-10T17:13:47.338Z,4.70
2023-04-10T17:16:16.642Z,3.75
2023-04-10T17:18:44.998Z,5.07
2023-04-10T17:21:13.232Z,3.03
2023-04-10T17:23:41.583Z,4.28
2023-04-10T17:26:14.169Z,3.65
2023-04-10T17:28:44.324Z,4.72
2023-04-10T17:31:12.610Z,4.95
2023-04-10T17:33:42.735Z,4.50
2023-04-10T17:36:12.190Z,4.68
2023-04-10T17:38:40.966Z,5.35
2023-04-10T17:41:09.387Z,6.15
2023-04-10T17:43:37.501Z,4.25
2023-04-10T17:46:05.640Z,4.32
2023-04-10T17:48:34.962Z,4.53
2023-04-10T17:51:07.379Z,5.32
2023-04-10T17:53:35.862Z,5.20
2023-04-10T17:56:03.813Z,4.38
2023-04-10T17:58:31.852Z,4.88
2023-04-10T18:00:59.807Z,4.72
2023-04-10T18:03:27.796Z,5.18
2023-04-10T18:05:55.820Z,4.38
2023-04-10T18:08:25.043Z,4.68
2023-04-10T18:10:52.896Z,4.35
2023-04-10T18:13:20.785Z,5.25
2023-04-10T18:15:48.699Z,5.75
2023-04-10T18:18:16.536Z,5.13
2023-04-10T18:20:44.366Z,5.70
2023-04-10T18:23:12.254Z,6.10
2023-04-10T18:25:41.421Z,6.07
2023-04-10T18:28:14.945Z,5.05
2023-04-10T18:30:43.931Z,5.75
2023-04-10T18:33:11.915Z,5.18
2023-04-10T18:35:39.982Z,5.28
2023-04-10T18:38:07.949Z,5.20
2023-04-10T18:40:36.811Z,5.18
2023-04-10T18:43:06.336Z,5.40
2023-04-10T18:45:35.402Z,6.20
2023-04-10T18:48:03.301Z,5.57
2023-04-10T18:50:34.880Z,5.53
2023-04-10T18:53:02.760Z,6.13
2023-04-10T18:55:30.692Z,5.63
2023-04-10T18:57:58.526Z,7.55
2023-04-10T19:00:27.738Z,8.35
2023-04-10T19:02:56.714Z,7.72
2023-04-10T19:05:24.704Z,8.82
2023-04-10T19:08:02.820Z,6.55
2023-04-10T19:10:31.373Z,5.45
2023-04-10T19:12:59.244Z,7.72
2023-04-10T19:15:28.436Z,6.63
2023-04-10T19:17:56.440Z,9.93
2023-04-10T19:20:50.759Z,15.68
2023-04-10T19:23:12.834Z,7.03
2023-04-10T19:25:40.891Z,6.03
2023-04-10T19:28:08.795Z,7.10
2023-04-10T19:30:37.974Z,8.30
2023-04-10T19:33:05.990Z,5.93
2023-04-10T19:35:33.950Z,6.40
2023-04-10T19:38:01.829Z,7.10
2023-04-10T19:40:31.951Z,5.30
2023-04-10T19:43:01.766Z,5.43
2023-04-10T19:45:32.326Z,6.63
2023-04-10T19:48:01.628Z,8.45
2023-04-10T19:50:31.033Z,8.00
2023-04-10T19:53:00.311Z,5.50
2023-04-10T19:55:29.564Z,7.05
2023-04-10T19:57:57.509Z,6.30
2023-04-10T20:00:25.391Z,6.72
2023-04-10T20:02:53.493Z,6.15
2023-04-10T20:05:22.926Z,5.72
2023-04-10T20:07:50.964Z,7.07
2023-04-10T20:10:18.866Z,7.18
2023-04-10T20:12:46.697Z,6.78
2023-04-10T20:15:14.711Z,7.75
2023-04-10T20:17:42.594Z,7.82
2023-04-10T20:20:12.628Z,6.18
2023-04-10T20:22:44.934Z,6.40
2023-04-10T20:25:12.806Z,8.20
2023-04-10T20:27:40.663Z,7.60
2023-04-10T20:30:13.022Z,9.02
2023-04-10T20:32:41.239Z,8.15
2023-04-10T20:35:10.197Z,8.10
2023-04-10T20:37:38.039Z,8.18
2023-04-10T20:40:08.929Z,8.05
2023-04-10T20:42:36.781Z,7.45
2023-04-10T20:45:04.959Z,8.32
2023-04-10T20:47:32.836Z,7.30
2023-04-10T20:50:00.709Z,7.10
2023-04-10T20:52:28.606Z,7.45
2023-04-10T20:54:56.583Z,7.72
2023-04-10T20:57:25.750Z,8.43
2023-04-10T21:02:39.837Z,9.07
2023-04-10T21:05:08.280Z,7.40
2023-04-10T21:07:36.143Z,8.80
2023-04-10T21:10:04.277Z,6.93
2023-04-10T21:12:33.514Z,7.45
2023-04-10T21:15:01.342Z,6.82
2023-04-10T21:17:31.486Z,7.00
2023-04-10T21:19:59.770Z,6.68
2023-04-10T21:22:29.352Z,6.05
2023-04-10T21:24:57.597Z,7.30
2023-04-10T21:27:25.482Z,6.47
2023-04-10T21:29:54.716Z,6.78
2023-04-10T21:32:22.673Z,7.22
2023-04-10T21:34:50.592Z,6.05
2023-04-10T21:37:18.477Z,6.63
2023-04-10T21:39:46.326Z,7.72
2023-04-10T21:42:14.179Z,7.78
2023-04-10T21:44:42.035Z,7.22
2023-04-10T21:47:11.190Z,7.38
2023-04-10T21:49:39.053Z,6.60
2023-04-10T21:52:07.229Z,7.10
2023-04-10T21:54:36.149Z,6.65
2023-04-10T21:57:04.087Z,7.30
2023-04-10T21:59:32.140Z,7.45
2023-04-10T22:02:00.051Z,7.10
2023-04-10T22:04:29.275Z,8.05
2023-04-10T22:06:57.202Z,8.20
2023-04-10T22:09:25.022Z,6.95
2023-04-10T22:11:52.862Z,6.18
2023-04-10T22:14:21.493Z,6.65
2023-04-10T22:16:49.565Z,6.80
2023-04-10T22:19:17.477Z,6.05
2023-04-10T22:21:46.678Z,7.40
2023-04-10T22:24:14.531Z,6.95
2023-04-10T22:26:45.780Z,7.65
2023-04-10T22:29:14.527Z,7.43
2023-04-10T22:31:42.738Z,8.63
2023-04-10T22:34:10.811Z,7.53
2023-04-10T22:36:38.711Z,8.43
2023-04-10T22:39:07.924Z,6.43
2023-04-10T22:41:35.893Z,5.75
2023-04-10T22:44:03.804Z,7.85
2023-04-10T22:46:31.776Z,7.57
2023-04-10T22:48:59.696Z,7.30
2023-04-10T22:51:27.722Z,6.10
2023-04-10T22:53:55.755Z,6.97
2023-04-10T22:56:28.366Z,6.95
2023-04-10T22:58:56.776Z,11.90
2023-04-10T23:01:24.803Z,5.90
2023-04-10T23:03:53.734Z,7.03
2023-04-10T23:06:21.907Z,5.82
2023-04-10T23:08:49.801Z,6.00
2023-04-10T23:11:17.663Z,5.78
2023-04-10T23:13:46.921Z,5.82
2023-04-10T23:16:14.861Z,5.70
2023-04-10T23:18:42.776Z,6.65
2023-04-10T23:21:10.619Z,5.40
2023-04-10T23:23:38.528Z,6.25
2023-04-10T23:26:06.824Z,8.98
2023-04-10T23:28:34.683Z,5.55
2023-04-10T23:31:03.950Z,4.38
2023-04-10T23:33:31.882Z,3.85
2023-04-10T23:35:59.987Z,4.50
2023-04-10T23:38:27.879Z,5.65
2023-04-10T23:40:55.768Z,4.68
2023-04-10T23:43:23.633Z,5.28
2023-04-10T23:45:51.508Z,5.07
2023-04-10T23:48:20.739Z,4.00
2023-04-10T23:50:48.609Z,3.30
2023-04-10T23:53:16.450Z,3.20
2023-04-10T23:55:44.404Z,3.50
2023-04-10T23:58:12.234Z,4.10
